Time;durP1;ratioP1;P1;durP2;ratioP2;P2;SDS_P1;SDS_P2;PMS_P1;PMS_P2;Temp;Humidity;BMP_temperature;BMP_pressure;BME280_temperature;BME280_humidity;BME280_pressure;Samples;Min_cycle;Max_cycle;Signal;HPM_P1;HPM_P2
2022/07/24 00:00:29;;;;;;;9.07;4.22;;;15.80;99.90;;;;;;5139801;27;20132;-86
2022/07/24 00:03:15;;;;;;;8.20;4.45;;;15.80;99.90;;;;;;5130279;27;20051;-90
2022/07/24 00:06:02;;;;;;;8.88;4.43;;;15.80;99.90;;;;;;5142193;28;20047;-89
2022/07/24 00:08:48;;;;;;;8.05;4.20;;;15.80;99.90;;;;;;5134245;28;20050;-89
2022/07/24 00:11:35;;;;;;;8.90;4.28;;;15.70;99.90;;;;;;5119324;28;20086;-90
2022/07/24 00:14:22;;;;;;;9.00;4.65;;;15.70;99.90;;;;;;5115764;28;20079;-88
2022/07/24 00:17:08;;;;;;;9.27;4.95;;;15.70;99.90;;;;;;5118352;28;20061;-88
2022/07/24 00:19:54;;;;;;;7.10;4.38;;;15.60;99.90;;;;;;5133081;28;20049;-87
2022/07/24 00:22:40;;;;;;;6.47;4.90;;;15.60;99.90;;;;;;5131444;28;20085;-88
2022/07/24 00:25:27;;;;;;;6.60;3.72;;;15.60;99.90;;;;;;5131201;28;20043;-87
2022/07/24 00:28:13;;;;;;;10.38;3.95;;;15.60;99.90;;;;;;5135284;27;20049;-90
2022/07/24 00:30:59;;;;;;;8.25;3.72;;;15.60;99.90;;;;;;5141721;27;20047;-88
2022/07/24 00:33:48;;;;;;;7.43;3.50;;;15.60;99.90;;;;;;5139478;27;20494;-88
2022/07/24 00:36:34;;;;;;;6.60;3.85;;;15.60;99.90;;;;;;5138169;27;20059;-89
2022/07/24 00:39:21;;;;;;;10.00;4.50;;;15.50;99.90;;;;;;5122590;27;20039;-87
2022/07/24 00:42:07;;;;;;;8.48;3.58;;;15.50;99.90;;;;;;5135342;27;20043;-89
2022/07/24 00:44:54;;;;;;;9.35;3.90;;;15.50;99.90;;;;;;5121185;27;20043;-88
2022/07/24 00:47:41;;;;;;;5.97;3.75;;;15.50;99.90;;;;;;5135505;27;20039;-89
2022/07/24 00:50:27;;;;;;;8.55;3.70;;;15.50;99.90;;;;;;5137200;27;20077;-90
2022/07/24 00:53:14;;;;;;;7.18;3.70;;;15.50;99.90;;;;;;5143399;27;20053;-87
2022/07/24 00:56:00;;;;;;;7.38;3.70;;;15.50;99.90;;;;;;5143934;27;20056;-87
2022/07/24 00:58:50;;;;;;;14.43;5.00;;;15.50;99.90;;;;;;5144161;27;20046;-88
2022/07/24 01:01:37;;;;;;;9.20;4.00;;;15.40;99.90;;;;;;5140774;27;20425;-89
2022/07/24 01:04:24;;;;;;;6.65;3.88;;;15.40;99.90;;;;;;5143999;27;20047;-86
2022/07/24 01:07:11;;;;;;;6.25;3.75;;;15.40;99.90;;;;;;5161039;27;20549;-87
2022/07/24 01:09:58;;;;;;;7.00;4.10;;;15.40;99.90;;;;;;5142490;27;20047;-86
2022/07/24 01:12:44;;;;;;;8.02;4.00;;;15.40;99.90;;;;;;5137781;27;20395;-86
2022/07/24 01:15:30;;;;;;;8.85;4.18;;;15.40;99.90;;;;;;5138866;27;20055;-88
2022/07/24 01:18:17;;;;;;;8.38;3.92;;;15.40;99.90;;;;;;5132516;27;20055;-86
2022/07/24 01:21:05;;;;;;;6.90;4.05;;;15.30;99.90;;;;;;5146892;27;20107;-87
2022/07/24 01:23:52;;;;;;;7.85;4.22;;;15.30;99.90;;;;;;5146231;27;20131;-86
2022/07/24 01:26:38;;;;;;;11.95;4.13;;;15.30;99.90;;;;;;5144860;27;20082;-88
2022/07/24 01:29:24;;;;;;;7.75;4.53;;;15.30;99.90;;;;;;5131185;27;20043;-88
2022/07/24 01:32:11;;;;;;;7.28;4.30;;;15.30;99.90;;;;;;5162614;27;20047;-88
2022/07/24 01:34:57;;;;;;;7.15;4.40;;;15.20;99.90;;;;;;5127027;27;20505;-87
2022/07/24 01:37:43;;;;;;;8.55;4.40;;;15.30;99.90;;;;;;5137445;27;20066;-88
2022/07/24 01:40:29;;;;;;;7.43;3.70;;;15.20;99.90;;;;;;5141178;27;20050;-88
2022/07/24 01:43:16;;;;;;;7.38;4.80;;;15.20;99.90;;;;;;5164374;27;20081;-88
2022/07/24 01:46:02;;;;;;;7.50;4.32;;;15.20;99.90;;;;;;5123423;27;20504;-88
2022/07/24 01:48:49;;;;;;;10.30;4.85;;;15.20;99.90;;;;;;5158033;27;20525;-88
2022/07/24 01:51:35;;;;;;;7.03;4.25;;;15.20;99.90;;;;;;5145730;27;20106;-88
2022/07/24 01:54:21;;;;;;;7.03;4.05;;;15.20;99.90;;;;;;5155411;27;20039;-87
2022/07/24 01:57:08;;;;;;;7.65;5.07;;;15.20;99.90;;;;;;5121619;27;20134;-88
2022/07/24 01:59:55;;;;;;;9.10;4.90;;;15.20;99.90;;;;;;5139051;27;20077;-87
2022/07/24 02:02:43;;;;;;;7.78;5.07;;;15.20;99.90;;;;;;5143324;27;20074;-88
2022/07/24 02:05:31;;;;;;;9.45;5.63;;;15.20;99.90;;;;;;5160839;27;20054;-88
2022/07/24 02:08:20;;;;;;;10.20;5.40;;;15.10;99.90;;;;;;5144128;27;20418;-88
2022/07/24 02:11:06;;;;;;;7.90;5.20;;;15.20;99.90;;;;;;5141945;27;20046;-86
2022/07/24 02:13:55;;;;;;;6.25;4.60;;;15.20;99.90;;;;;;5143856;27;20050;-88
2022/07/24 02:16:41;;;;;;;7.63;4.90;;;15.10;99.90;;;;;;5130159;27;20042;-88
2022/07/24 02:19:27;;;;;;;9.93;5.88;;;15.10;99.90;;;;;;5153799;27;20099;-88
2022/07/24 02:22:13;;;;;;;7.13;4.88;;;15.20;99.90;;;;;;5153536;27;20074;-87
2022/07/24 02:25:00;;;;;;;8.68;4.78;;;15.20;99.90;;;;;;5139004;27;20095;-89
2022/07/24 02:27:46;;;;;;;9.52;5.35;;;15.20;99.90;;;;;;5153093;27;20191;-87
2022/07/24 02:30:32;;;;;;;10.80;5.68;;;15.20;99.90;;;;;;5134417;27;20111;-88
2022/07/24 02:33:18;;;;;;;10.48;5.57;;;15.20;99.90;;;;;;5134653;27;20489;-88
2022/07/24 02:36:08;;;;;;;9.43;4.95;;;15.20;99.90;;;;;;5120112;27;20485;-88
2022/07/24 02:38:54;;;;;;;9.73;4.90;;;15.20;99.90;;;;;;5153780;27;20130;-88
2022/07/24 02:41:41;;;;;;;10.48;5.45;;;15.20;99.90;;;;;;5137569;27;20051;-87
2022/07/24 02:44:27;;;;;;;12.13;5.32;;;15.20;99.90;;;;;;5152753;27;20064;-87
2022/07/24 02:47:13;;;;;;;10.25;4.97;;;15.20;99.90;;;;;;5121015;27;20046;-88
2022/07/24 02:49:59;;;;;;;11.23;5.50;;;15.20;99.90;;;;;;5152673;27;20091;-88
2022/07/24 02:52:46;;;;;;;9.77;5.70;;;15.20;99.90;;;;;;5133390;27;20043;-88
2022/07/24 02:55:33;;;;;;;11.80;5.70;;;15.20;99.90;;;;;;5152842;27;20047;-88
2022/07/24 02:58:19;;;;;;;8.38;6.05;;;15.20;99.90;;;;;;5155867;27;20050;-88
2022/07/24 03:01:06;;;;;;;9.68;5.93;;;15.20;99.90;;;;;;5136498;27;20043;-86
2022/07/24 03:03:52;;;;;;;10.60;5.82;;;15.20;99.90;;;;;;5137954;27;20074;-87
2022/07/24 03:06:38;;;;;;;8.48;6.25;;;15.20;99.90;;;;;;5111587;28;20572;-87
2022/07/24 03:09:24;;;;;;;10.30;6.38;;;15.20;99.90;;;;;;5117961;28;20040;-86
2022/07/24 03:12:11;;;;;;;10.27;6.30;;;15.20;99.90;;;;;;5099128;28;20044;-87
2022/07/24 03:14:57;;;;;;;8.50;5.90;;;15.20;99.90;;;;;;5084813;28;20047;-88
2022/07/24 03:17:51;;;;;;;10.30;6.60;;;15.20;99.90;;;;;;5124292;28;20536;-87
2022/07/24 03:20:38;;;;;;;8.47;6.17;;;15.20;99.90;;;;;;5112622;28;20040;-88
2022/07/24 03:23:24;;;;;;;10.27;5.88;;;15.20;99.90;;;;;;5110265;28;20313;-88
2022/07/24 03:26:10;;;;;;;15.55;6.60;;;15.20;99.90;;;;;;5109715;28;20112;-88
2022/07/24 03:28:56;;;;;;;9.15;6.43;;;15.20;99.90;;;;;;5111621;28;20488;-88
2022/07/24 03:31:43;;;;;;;11.90;6.80;;;15.20;99.90;;;;;;5115193;28;20139;-89
2022/07/24 03:34:30;;;;;;;12.20;6.78;;;15.20;99.90;;;;;;5119649;28;20074;-89
2022/07/24 03:37:16;;;;;;;10.05;7.18;;;15.30;99.90;;;;;;5111984;28;20044;-87
2022/07/24 03:40:04;;;;;;;13.15;7.50;;;15.30;99.90;;;;;;5112696;28;20048;-88
2022/07/24 03:42:50;;;;;;;11.15;7.30;;;15.30;99.90;;;;;;5112536;28;20399;-88
2022/07/24 03:45:37;;;;;;;10.68;7.20;;;15.30;99.90;;;;;;5111827;28;20384;-88
2022/07/24 03:48:23;;;;;;;8.52;6.35;;;15.30;99.90;;;;;;5112092;28;20043;-86
2022/07/24 03:51:09;;;;;;;14.25;8.18;;;15.30;99.90;;;;;;5110636;28;20089;-89
2022/07/24 03:53:56;;;;;;;11.13;7.55;;;15.30;99.90;;;;;;5112803;28;20116;-87
2022/07/24 03:56:43;;;;;;;11.77;7.78;;;15.40;99.90;;;;;;5112449;28;20130;-87
2022/07/24 03:59:32;;;;;;;9.90;6.93;;;15.30;99.90;;;;;;5112305;28;20090;-88
2022/07/24 04:02:18;;;;;;;12.55;8.60;;;15.30;99.90;;;;;;5116234;28;20473;-88
2022/07/24 04:05:08;;;;;;;11.75;7.93;;;15.40;99.90;;;;;;5126509;27;20059;-88
2022/07/24 04:07:54;;;;;;;10.68;7.82;;;15.40;99.90;;;;;;5144005;27;20141;-87
2022/07/24 04:10:41;;;;;;;12.35;7.70;;;15.40;99.90;;;;;;5147904;27;20039;-87
2022/07/24 04:13:29;;;;;;;11.23;6.95;;;15.40;99.90;;;;;;5137887;27;20103;-88
2022/07/24 04:16:15;;;;;;;10.75;8.02;;;15.50;99.90;;;;;;5136137;27;20383;-89
2022/07/24 04:19:01;;;;;;;16.25;8.57;;;15.50;99.90;;;;;;5134629;27;20051;-88
2022/07/24 04:21:48;;;;;;;10.88;8.27;;;15.50;99.90;;;;;;5102586;27;20077;-89
2022/07/24 04:24:34;;;;;;;10.73;7.10;;;15.60;99.90;;;;;;5135401;27;20658;-88
2022/07/24 04:27:20;;;;;;;11.45;8.32;;;15.60;99.90;;;;;;5134408;27;20053;-88
2022/07/24 04:30:07;;;;;;;11.50;7.97;;;15.60;99.90;;;;;;5134730;27;20050;-87
2022/07/24 04:32:53;;;;;;;11.07;7.80;;;15.60;99.90;;;;;;5134229;27;20482;-90
2022/07/24 04:35:40;;;;;;;9.75;7.32;;;15.70;99.90;;;;;;5136513;27;20063;-88
2022/07/24 04:38:26;;;;;;;11.10;7.80;;;15.70;99.90;;;;;;5139287;27;20047;-89
2022/07/24 04:41:17;;;;;;;11.75;7.45;;;15.80;99.90;;;;;;5141841;27;20410;-89
2022/07/24 04:44:03;;;;;;;12.38;7.78;;;15.90;99.90;;;;;;5143636;27;20130;-89
2022/07/24 04:46:50;;;;;;;10.55;7.72;;;15.90;99.90;;;;;;5140384;27;20047;-87
2022/07/24 04:49:36;;;;;;;12.98;8.05;;;15.90;99.90;;;;;;5140982;27;20054;-88
2022/07/24 04:52:22;;;;;;;12.43;7.97;;;15.90;99.90;;;;;;5144445;27;20043;-86
2022/07/24 04:55:10;;;;;;;13.02;8.30;;;16.00;99.90;;;;;;5140223;27;20039;-88
2022/07/24 04:57:56;;;;;;;11.52;7.68;;;16.00;99.90;;;;;;5142768;27;20054;-87
2022/07/24 05:00:42;;;;;;;13.95;8.07;;;16.00;99.90;;;;;;5113176;27;20054;-88
2022/07/24 05:03:28;;;;;;;12.15;7.60;;;16.00;99.90;;;;;;5113184;27;20054;-88
2022/07/24 05:06:15;;;;;;;12.73;8.80;;;16.00;99.90;;;;;;5127900;27;20047;-88
2022/07/24 05:09:01;;;;;;;12.23;8.57;;;16.10;99.90;;;;;;5132233;27;20584;-89
2022/07/24 05:11:47;;;;;;;12.20;8.25;;;16.10;99.90;;;;;;5123585;27;20039;-88
2022/07/24 05:14:34;;;;;;;11.02;7.32;;;16.20;99.90;;;;;;5137468;27;20051;-87
2022/07/24 05:17:21;;;;;;;12.77;7.25;;;16.30;99.90;;;;;;5119246;27;20061;-88
2022/07/24 05:20:08;;;;;;;12.73;8.25;;;16.40;99.90;;;;;;5125983;27;20048;-87
2022/07/24 05:22:54;;;;;;;11.45;8.40;;;16.50;99.90;;;;;;5138215;27;20582;-87
2022/07/24 05:25:40;;;;;;;13.90;8.82;;;16.70;99.90;;;;;;5117754;27;20104;-88
2022/07/24 05:28:26;;;;;;;12.93;8.00;;;16.70;99.90;;;;;;5135354;27;20129;-87
2022/07/24 05:31:13;;;;;;;14.38;8.45;;;16.80;99.90;;;;;;5118368;27;20092;-88
2022/07/24 05:34:01;;;;;;;12.60;8.30;;;17.00;99.90;;;;;;5116198;27;20043;-89
2022/07/24 05:36:48;;;;;;;11.23;8.07;;;17.10;99.90;;;;;;5116595;27;20051;-88
2022/07/24 05:39:34;;;;;;;11.43;8.32;;;17.20;99.90;;;;;;5116690;27;20134;-86
2022/07/24 05:42:20;;;;;;;10.75;7.70;;;17.30;99.90;;;;;;5137156;27;20043;-87
2022/07/24 05:45:07;;;;;;;11.27;7.90;;;17.40;99.90;;;;;;5122214;27;20645;-87
2022/07/24 05:47:53;;;;;;;11.43;8.23;;;17.60;99.90;;;;;;5140987;27;20043;-88
2022/07/24 05:50:40;;;;;;;10.45;7.20;;;17.80;99.90;;;;;;5137879;27;20088;-88
2022/07/24 05:53:29;;;;;;;11.13;8.27;;;17.90;99.90;;;;;;5122223;27;20059;-87
2022/07/24 05:56:19;;;;;;;13.23;7.53;;;18.10;99.90;;;;;;5139676;27;20050;-88
2022/07/24 05:59:06;;;;;;;11.75;7.65;;;18.20;99.90;;;;;;5119945;27;20082;-88
2022/07/24 06:01:52;;;;;;;12.40;7.82;;;18.30;99.90;;;;;;5120688;27;20422;-88
2022/07/24 06:04:41;;;;;;;13.40;8.50;;;18.20;99.90;;;;;;5103426;27;20070;-86
2022/07/24 06:07:28;;;;;;;11.45;8.10;;;18.10;99.90;;;;;;5103893;27;20055;-88
2022/07/24 06:10:14;;;;;;;16.58;8.40;;;18.00;99.90;;;;;;5135350;27;20534;-89
2022/07/24 06:13:01;;;;;;;11.52;8.73;;;17.90;99.90;;;;;;5092034;27;20070;-89
2022/07/24 06:15:47;;;;;;;11.98;8.23;;;18.00;99.90;;;;;;5103463;27;20059;-87
2022/07/24 06:18:33;;;;;;;11.80;8.52;;;18.20;99.90;;;;;;5106572;27;20473;-88
2022/07/24 06:21:19;;;;;;;13.80;9.13;;;18.30;99.90;;;;;;5104116;27;20047;-87
2022/07/24 06:24:06;;;;;;;13.98;8.32;;;18.50;99.90;;;;;;5119469;27;20424;-87
2022/07/24 06:26:55;;;;;;;12.82;8.48;;;18.70;99.90;;;;;;5135262;27;20086;-88
2022/07/24 06:29:42;;;;;;;12.60;8.52;;;18.80;99.90;;;;;;5117255;27;20047;-88
2022/07/24 06:32:31;;;;;;;13.50;8.95;;;18.90;99.90;;;;;;5104421;27;20116;-89
2022/07/24 06:35:17;;;;;;;17.80;9.63;;;19.10;99.90;;;;;;5127375;27;20055;-88
2022/07/24 06:38:04;;;;;;;15.10;9.02;;;19.30;99.90;;;;;;5109604;27;20051;-89
2022/07/24 06:40:50;;;;;;;17.40;10.80;;;19.40;99.90;;;;;;5095068;27;20051;-87
2022/07/24 06:43:36;;;;;;;13.95;9.60;;;19.50;99.90;;;;;;5113015;27;20047;-88
2022/07/24 06:46:23;;;;;;;14.63;9.57;;;19.70;99.90;;;;;;5122807;27;20104;-87
2022/07/24 06:49:12;;;;;;;16.05;10.90;;;19.80;99.90;;;;;;5128112;27;20050;-88
2022/07/24 06:51:58;;;;;;;13.82;10.15;;;20.10;99.90;;;;;;5132393;27;20046;-88
2022/07/24 06:54:48;;;;;;;19.38;11.15;;;20.30;99.90;;;;;;5129608;27;20047;-89
2022/07/24 06:57:34;;;;;;;18.05;11.07;;;20.50;99.90;;;;;;5137027;27;20061;-89
2022/07/24 07:00:21;;;;;;;14.82;10.95;;;20.80;99.90;;;;;;5123017;27;20392;-88
2022/07/24 07:03:07;;;;;;;17.63;12.35;;;21.00;99.90;;;;;;5142319;27;20061;-89
2022/07/24 07:05:54;;;;;;;16.20;10.38;;;21.20;99.90;;;;;;5112946;27;20080;-89
2022/07/24 07:08:40;;;;;;;15.68;10.65;;;21.30;99.90;;;;;;5129944;27;20047;-89
2022/07/24 07:11:26;;;;;;;18.20;10.02;;;21.30;99.90;;;;;;5132275;27;20051;-88
2022/07/24 07:14:13;;;;;;;14.48;10.48;;;21.40;99.90;;;;;;5128759;27;20046;-88
2022/07/24 07:16:59;;;;;;;14.77;9.88;;;21.40;99.90;;;;;;5149132;27;20081;-88
2022/07/24 07:19:45;;;;;;;14.63;8.70;;;21.50;99.90;;;;;;5149323;28;20112;-88
2022/07/24 07:22:32;;;;;;;10.93;8.02;;;21.70;99.90;;;;;;5115950;28;20047;-88
2022/07/24 07:25:18;;;;;;;11.95;8.43;;;21.90;99.90;;;;;;5134268;28;20028;-88
2022/07/24 07:28:04;;;;;;;13.40;7.68;;;21.80;99.90;;;;;;5128973;28;20054;-89
2022/07/24 07:30:51;;;;;;;13.90;8.40;;;21.80;99.90;;;;;;5142279;28;20104;-88
2022/07/24 07:33:37;;;;;;;14.48;7.82;;;21.80;99.90;;;;;;5124422;28;20138;-89
2022/07/24 07:36:25;;;;;;;12.30;7.53;;;21.80;99.90;;;;;;5113332;28;20477;-90
2022/07/24 07:39:11;;;;;;;11.25;7.80;;;21.70;99.90;;;;;;5131244;27;20059;-89
2022/07/24 07:41:57;;;;;;;12.93;7.53;;;21.60;99.90;;;;;;5133568;27;20111;-89
2022/07/24 07:44:47;;;;;;;10.75;6.72;;;21.60;99.90;;;;;;5129948;27;20201;-89
2022/07/24 07:47:37;;;;;;;13.57;8.20;;;21.60;99.90;;;;;;5113708;27;20047;-87
2022/07/24 07:50:23;;;;;;;12.25;7.75;;;21.50;99.90;;;;;;5130019;27;20047;-88
2022/07/24 07:53:09;;;;;;;12.98;8.40;;;21.40;99.90;;;;;;5115937;27;20114;-89
2022/07/24 07:55:55;;;;;;;14.70;8.55;;;21.30;99.90;;;;;;5130652;27;20115;-89
2022/07/24 07:58:42;;;;;;;15.68;8.25;;;21.30;99.90;;;;;;5167847;27;20050;-89
2022/07/24 08:01:28;;;;;;;11.82;8.32;;;21.30;99.90;;;;;;5151433;27;20074;-89
2022/07/24 08:04:19;;;;;;;12.55;8.00;;;21.30;99.90;;;;;;5133107;27;20072;-89
2022/07/24 08:07:05;;;;;;;14.35;8.13;;;21.30;99.90;;;;;;5132841;27;20584;-89
2022/07/24 08:09:54;;;;;;;13.25;8.38;;;21.40;99.90;;;;;;5145761;27;20138;-89
2022/07/24 08:12:40;;;;;;;13.35;9.20;;;21.40;99.90;;;;;;5153283;27;20055;-89
2022/07/24 08:15:26;;;;;;;13.80;9.20;;;21.50;99.90;;;;;;5141378;27;20055;-90
2022/07/24 08:18:13;;;;;;;14.32;8.75;;;21.40;99.90;;;;;;5134936;27;20049;-88
2022/07/24 08:20:59;;;;;;;15.60;9.70;;;21.40;99.90;;;;;;5168584;27;20099;-89
2022/07/24 08:23:54;;;;;;;16.55;8.43;;;21.40;99.90;;;;;;5138435;27;20070;-89
2022/07/24 08:26:42;;;;;;;14.35;9.10;;;21.50;99.90;;;;;;5119619;27;20090;-88
2022/07/24 08:29:29;;;;;;;13.25;8.40;;;21.50;99.90;;;;;;5147544;27;20039;-90
2022/07/24 08:32:16;;;;;;;13.88;9.07;;;21.50;99.90;;;;;;5166385;27;20035;-88
2022/07/24 08:35:02;;;;;;;15.57;9.63;;;21.70;99.90;;;;;;5163331;27;20039;-89
2022/07/24 08:37:49;;;;;;;11.77;8.05;;;21.70;99.90;;;;;;5135453;27;20070;-89
2022/07/24 08:40:39;;;;;;;12.10;8.45;;;21.70;99.90;;;;;;5133795;27;20068;-87
2022/07/24 08:43:25;;;;;;;13.50;7.72;;;21.80;99.90;;;;;;5133945;27;20054;-91
2022/07/24 08:46:16;;;;;;;12.40;7.40;;;21.80;99.90;;;;;;5150778;27;20058;-87
2022/07/24 08:49:06;;;;;;;12.52;7.47;;;22.00;99.90;;;;;;5136269;27;20043;-87
2022/07/24 08:51:53;;;;;;;15.27;7.70;;;22.30;99.90;;;;;;5133386;27;20559;-88
2022/07/24 08:54:39;;;;;;;10.27;6.85;;;22.60;99.90;;;;;;5145753;27;20050;-89
2022/07/24 08:57:26;;;;;;;10.02;6.97;;;22.80;99.90;;;;;;5129183;27;20050;-89
2022/07/24 09:00:13;;;;;;;12.45;7.13;;;22.90;99.90;;;;;;5147881;27;20054;-90
2022/07/24 09:02:59;;;;;;;11.55;7.55;;;22.90;99.90;;;;;;5150163;27;20053;-89
2022/07/24 09:05:57;;;;;;;10.38;6.32;;;23.00;99.90;;;;;;5148104;27;20047;-88
2022/07/24 09:09:03;;;;;;;8.13;6.00;;;23.20;99.90;;;;;;5129857;27;20051;-91
2022/07/24 09:11:50;;;;;;;7.07;4.65;;;23.10;99.90;;;;;;5146918;27;20138;-89
2022/07/24 09:14:43;;;;;;;7.30;3.97;;;23.10;99.90;;;;;;5144454;27;20108;-89
2022/07/24 09:17:32;;;;;;;5.63;3.60;;;23.20;99.90;;;;;;5133780;27;20565;-89
2022/07/24 09:20:20;;;;;;;7.60;3.70;;;23.60;99.90;;;;;;5145862;27;20103;-89
2022/07/24 09:23:06;;;;;;;6.72;4.28;;;24.10;99.90;;;;;;5143190;27;20049;-89
2022/07/24 09:25:54;;;;;;;6.78;3.90;;;24.00;99.90;;;;;;5148504;27;20043;-89
2022/07/24 09:29:10;;;;;;;9.43;3.72;;;24.10;99.90;;;;;;5124408;27;20515;-89
2022/07/24 09:32:01;;;;;;;5.30;3.42;;;24.10;99.90;;;;;;5140379;27;20054;-88
2022/07/24 09:34:51;;;;;;;6.65;3.65;;;24.40;99.90;;;;;;5125908;27;20051;-89
2022/07/24 09:37:38;;;;;;;7.43;3.35;;;24.60;99.90;;;;;;5136246;27;20141;-89
2022/07/24 09:40:33;;;;;;;5.95;3.00;;;24.90;99.90;;;;;;5123381;27;20043;-88
2022/07/24 09:43:24;;;;;;;;;;;24.80;99.90;;;;;;5139490;27;20046;-87
2022/07/24 09:46:15;;;;;;;7.85;3.13;;;24.90;99.90;;;;;;5143705;27;20077;-89
2022/07/24 09:49:04;;;;;;;5.38;2.35;;;25.00;99.90;;;;;;5141332;27;20109;-89
2022/07/24 09:52:16;;;;;;;5.30;2.42;;;25.20;99.90;;;;;;5122865;27;20047;-87
2022/07/24 09:55:20;;;;;;;5.45;2.63;;;25.50;98.80;;;;;;5143326;27;20047;-88
2022/07/24 09:58:19;;;;;;;4.97;2.50;;;25.60;99.60;;;;;;5144303;27;20078;-86
2022/07/24 10:01:08;;;;;;;7.15;2.85;;;25.80;97.40;;;;;;5139878;27;20145;-88
2022/07/24 10:03:56;;;;;;;5.25;2.35;;;25.80;97.80;;;;;;5118543;27;20043;-90
2022/07/24 10:06:47;;;;;;;8.45;2.90;;;25.80;97.20;;;;;;5132471;27;20512;-88
2022/07/24 10:09:35;;;;;;;6.85;2.70;;;26.00;97.10;;;;;;5131764;27;20051;-89
2022/07/24 10:12:26;;;;;;;4.93;2.75;;;25.90;97.20;;;;;;5132636;27;20134;-88
2022/07/24 10:15:13;;;;;;;7.07;2.15;;;26.10;97.10;;;;;;5141625;27;20039;-88
2022/07/24 10:18:21;;;;;;;4.25;2.30;;;26.40;96.60;;;;;;5136546;27;20051;-88
2022/07/24 10:21:10;;;;;;;7.13;2.10;;;26.30;96.20;;;;;;5133754;27;20047;-89
2022/07/24 10:24:14;;;;;;;4.18;2.70;;;26.10;96.40;;;;;;5134745;27;20403;-90
2022/07/24 10:27:05;;;;;;;5.78;2.30;;;25.90;96.60;;;;;;5119166;27;20097;-89
2022/07/24 10:29:59;;;;;;;5.78;2.35;;;25.90;96.90;;;;;;5119526;27;20078;-89
2022/07/24 10:32:46;;;;;;;6.07;2.75;;;25.80;96.90;;;;;;5134830;27;20058;-91
2022/07/24 10:35:36;;;;;;;5.10;2.50;;;25.90;97.00;;;;;;5135227;27;20137;-90
2022/07/24 10:38:32;;;;;;;4.45;2.10;;;26.40;97.90;;;;;;5137752;27;20437;-89
2022/07/24 10:41:25;;;;;;;7.47;2.75;;;26.80;96.60;;;;;;5137291;27;20047;-89
2022/07/24 10:44:17;;;;;;;7.15;2.30;;;26.70;95.80;;;;;;5122094;27;20108;-89
2022/07/24 10:47:09;;;;;;;4.93;2.33;;;26.60;96.20;;;;;;5135264;27;20047;-89
2022/07/24 10:49:57;;;;;;;4.38;2.13;;;26.60;95.50;;;;;;5138081;27;20047;-90
2022/07/24 10:52:43;;;;;;;6.85;2.22;;;26.40;95.60;;;;;;5136601;27;20043;-87
2022/07/24 10:55:33;;;;;;;5.13;2.20;;;26.30;95.30;;;;;;5137506;27;20124;-89
2022/07/24 10:58:21;;;;;;;7.00;2.10;;;26.50;95.80;;;;;;5138068;27;20047;-88
2022/07/24 11:01:37;;;;;;;6.88;2.53;;;26.70;95.30;;;;;;5136566;27;20475;-87
2022/07/24 11:04:30;;;;;;;3.60;2.10;;;26.80;95.30;;;;;;5136956;27;20103;-89
2022/07/24 11:07:16;;;;;;;10.60;2.25;;;27.10;94.70;;;;;;5124493;27;20055;-87
2022/07/24 11:10:07;;;;;;;6.25;2.28;;;27.30;94.70;;;;;;5122821;27;20134;-87
2022/07/24 11:16:56;;;;;;;3.85;1.90;;;27.30;93.40;;;;;;5134288;27;20114;-88
2022/07/24 11:19:44;;;;;;;3.20;1.73;;;27.20;93.70;;;;;;5117644;28;20074;-88
2022/07/24 11:22:38;;;;;;;5.78;2.38;;;27.00;93.70;;;;;;5114811;28;20081;-88
2022/07/24 11:25:30;;;;;;;4.30;2.20;;;26.80;93.50;;;;;;5106255;28;20047;-88
2022/07/24 11:28:16;;;;;;;5.68;2.30;;;26.70;93.50;;;;;;5133110;28;20047;-87
2022/07/24 11:31:04;;;;;;;3.10;1.67;;;26.60;93.80;;;;;;5143746;28;20141;-86
2022/07/24 11:33:50;;;;;;;3.15;1.60;;;26.70;93.90;;;;;;5123881;28;20047;-88
2022/07/24 11:36:42;;;;;;;5.78;2.13;;;26.80;93.80;;;;;;5122361;28;20051;-87
2022/07/24 11:39:34;;;;;;;3.88;2.03;;;26.70;93.80;;;;;;5122854;28;20047;-88
2022/07/24 11:42:20;;;;;;;4.30;2.10;;;26.80;94.20;;;;;;5140390;28;20104;-89
2022/07/24 11:45:07;;;;;;;3.75;2.20;;;27.00;94.00;;;;;;5129806;28;20080;-89
2022/07/24 11:47:54;;;;;;;4.85;1.90;;;27.10;94.20;;;;;;5141486;28;20051;-87
2022/07/24 11:50:41;;;;;;;6.95;1.80;;;26.80;94.10;;;;;;5140201;28;20129;-87
2022/07/24 11:53:27;;;;;;;4.68;2.20;;;27.20;93.90;;;;;;5135062;28;20061;-89
2022/07/24 11:56:16;;;;;;;3.70;2.08;;;27.20;93.90;;;;;;5136827;28;20040;-88
2022/07/24 11:59:03;;;;;;;5.10;1.80;;;27.20;93.70;;;;;;5137090;28;20890;-89
2022/07/24 12:01:56;;;;;;;4.30;1.80;;;27.40;94.00;;;;;;5138384;28;20096;-87
2022/07/24 12:04:44;;;;;;;3.63;1.88;;;27.40;94.30;;;;;;5118799;28;20053;-86
2022/07/24 12:07:30;;;;;;;8.07;2.00;;;27.20;93.50;;;;;;5136750;28;20058;-88
2022/07/24 12:10:23;;;;;;;6.18;2.17;;;27.30;94.10;;;;;;5103715;28;20191;-88
2022/07/24 12:13:09;;;;;;;5.78;2.85;;;27.30;94.40;;;;;;5138048;28;20133;-89
2022/07/24 12:15:56;;;;;;;5.00;2.17;;;27.40;94.50;;;;;;5137671;28;20116;-87
2022/07/24 12:18:42;;;;;;;4.30;1.92;;;27.70;94.10;;;;;;5115535;28;20051;-87
2022/07/24 12:21:28;;;;;;;6.40;2.25;;;27.80;93.20;;;;;;5133528;28;20050;-87
2022/07/24 12:24:15;;;;;;;4.38;1.80;;;27.90;93.30;;;;;;5104874;28;20054;-88
2022/07/24 12:27:02;;;;;;;4.10;2.05;;;28.50;93.10;;;;;;5139426;27;20486;-90
2022/07/24 12:29:48;;;;;;;3.83;1.80;;;28.80;92.50;;;;;;5121028;27;20043;-88
2022/07/24 12:32:35;;;;;;;6.22;1.95;;;28.90;92.40;;;;;;5140883;27;20047;-89
2022/07/24 12:35:22;;;;;;;6.88;2.05;;;28.70;92.20;;;;;;5125705;27;20050;-88
2022/07/24 12:38:08;;;;;;;4.03;2.00;;;28.70;92.50;;;;;;5126982;27;20136;-89
2022/07/24 12:41:14;;;;;;;;;;;28.70;92.40;;;;;;5144138;27;20066;-88
2022/07/24 12:44:02;;;;;;;4.53;2.33;;;28.40;92.50;;;;;;5144229;27;20209;-86
2022/07/24 12:46:57;;;;;;;5.18;2.22;;;28.00;91.90;;;;;;5142095;27;20085;-87
2022/07/24 12:49:46;;;;;;;4.57;2.17;;;28.00;92.10;;;;;;5142173;27;20043;-87
2022/07/24 12:56:38;;;;;;;4.82;2.00;;;27.90;92.60;;;;;;5148561;27;20088;-89
2022/07/24 12:59:34;;;;;;;3.60;1.80;;;27.90;92.50;;;;;;5128743;27;20043;-88
2022/07/24 13:02:24;;;;;;;4.93;2.20;;;28.00;92.60;;;;;;5138499;27;20054;-89
2022/07/24 13:05:10;;;;;;;6.47;2.25;;;28.00;93.10;;;;;;5121656;27;20055;-88
2022/07/24 13:07:57;;;;;;;3.80;1.90;;;27.80;93.30;;;;;;5117916;27;20051;-87
2022/07/24 13:10:43;;;;;;;4.95;2.58;;;27.80;93.70;;;;;;5117755;27;20043;-87
2022/07/24 13:13:29;;;;;;;4.38;2.17;;;27.60;93.70;;;;;;5117301;27;20054;-86
2022/07/24 13:16:15;;;;;;;4.55;1.88;;;27.70;94.30;;;;;;5128750;27;20096;-86
2022/07/24 13:19:04;;;;;;;4.28;1.90;;;27.90;93.80;;;;;;5130852;27;20044;-79
2022/07/24 13:21:50;;;;;;;3.80;1.88;;;28.30;93.00;;;;;;5110169;27;20085;-83
2022/07/24 13:24:37;;;;;;;3.47;1.80;;;28.90;92.80;;;;;;5115574;27;20043;-80
2022/07/24 13:27:23;;;;;;;6.72;2.42;;;29.00;92.70;;;;;;5132371;27;20134;-88
2022/07/24 13:30:11;;;;;;;4.53;2.00;;;29.30;92.00;;;;;;5120001;27;20050;-90
2022/07/24 13:32:57;;;;;;;4.70;1.77;;;29.60;91.90;;;;;;5102344;27;20051;-84
2022/07/24 13:35:43;;;;;;;6.25;1.95;;;30.40;91.30;;;;;;5111639;27;20051;-84
2022/07/24 13:38:30;;;;;;;6.60;1.85;;;30.10;91.10;;;;;;5113994;27;20051;-85
2022/07/24 13:41:18;;;;;;;4.63;1.65;;;29.90;90.10;;;;;;5115643;27;20467;-86
2022/07/24 13:44:23;;;;;;;2.45;1.30;;;30.10;89.50;;;;;;5135198;27;20127;-86
2022/07/24 13:47:09;;;;;;;4.35;1.92;;;30.20;88.80;;;;;;5119907;27;20059;-85
2022/07/24 13:49:55;;;;;;;4.15;1.80;;;30.10;89.70;;;;;;5110565;28;20054;-85
2022/07/24 13:52:42;;;;;;;3.65;1.50;;;30.30;89.10;;;;;;5124677;28;20053;-86
2022/07/24 13:55:29;;;;;;;4.72;1.70;;;30.60;89.10;;;;;;5118440;28;20052;-89
2022/07/24 13:58:16;;;;;;;3.38;1.50;;;30.60;88.50;;;;;;5119888;28;20043;-89
2022/07/24 14:01:04;;;;;;;4.75;1.83;;;31.10;87.80;;;;;;5101744;28;20406;-91
2022/07/24 14:03:50;;;;;;;4.82;1.52;;;31.60;87.60;;;;;;5101458;28;20089;-90
2022/07/24 14:06:37;;;;;;;2.92;1.45;;;31.20;84.20;;;;;;5100773;28;20067;-91
2022/07/24 14:09:24;;;;;;;6.07;1.58;;;31.00;84.20;;;;;;5101093;28;20477;-89
2022/07/24 14:12:11;;;;;;;4.80;1.70;;;30.60;83.20;;;;;;5127475;27;20057;-88
2022/07/24 14:14:57;;;;;;;4.43;1.65;;;31.50;85.00;;;;;;5118401;27;20381;-87
2022/07/24 14:17:43;;;;;;;3.65;1.50;;;32.10;83.60;;;;;;5131847;27;20118;-83
2022/07/24 14:20:30;;;;;;;5.50;1.80;;;32.40;82.90;;;;;;5139310;27;20039;-85
2022/07/24 14:23:16;;;;;;;3.28;1.73;;;33.20;81.90;;;;;;5139553;27;20138;-82
2022/07/24 14:26:02;;;;;;;4.35;1.70;;;34.00;79.10;;;;;;5120448;27;20518;-85
2022/07/24 14:28:48;;;;;;;5.90;2.03;;;34.40;76.00;;;;;;5136914;27;20102;-87
2022/07/24 14:31:34;;;;;;;3.33;1.45;;;34.10;74.40;;;;;;5104893;27;20391;-85
2022/07/24 14:34:21;;;;;;;3.92;1.67;;;33.80;73.30;;;;;;5132383;27;20410;-81
2022/07/24 14:37:07;;;;;;;2.65;1.30;;;33.90;73.80;;;;;;5132163;27;20050;-81